Time;durP1;ratioP1;P1;durP2;ratioP2;P2;SDS_P1;SDS_P2;PMS_P1;PMS_P2;Temp;Humidity;BMP_temperature;BMP_pressure;BME280_temperature;BME280_humidity;BME280_pressure;Samples;Min_cycle;Max_cycle;Signal;HPM_P1;HPM_P2
2023/09/05 00:00:20;;;;;;;43.55;41.55;;;;;;;18.40;100.00;101328.97;5019896;28;20049;-76
2023/09/05 00:02:48;;;;;;;39.92;37.92;;;;;;;18.44;100.00;101322.84;5019872;28;20049;-76
2023/09/05 00:05:18;;;;;;;36.58;34.58;;;;;;;19.94;100.00;101319.28;5024773;28;20051;-76
2023/09/05 00:07:45;;;;;;;42.03;39.92;;;;;;;19.01;100.00;101315.69;5025057;28;20692;-76
2023/09/05 00:10:13;;;;;;;42.10;39.90;;;;;;;18.70;100.00;101312.50;5020664;28;20483;-76
2023/09/05 00:12:40;;;;;;;42.58;40.28;;;;;;;18.29;100.00;101315.34;5025984;28;20537;-76
2023/09/05 00:15:08;;;;;;;44.97;42.78;;;;;;;18.88;100.00;101312.28;5019937;28;20501;-76
2023/09/05 00:17:37;;;;;;;42.17;39.97;;;;;;;18.98;100.00;101307.03;5027498;28;20123;-76
2023/09/05 00:20:04;;;;;;;43.78;41.58;;;;;;;19.89;100.00;101309.25;5023775;28;20120;-76
2023/09/05 00:22:34;;;;;;;44.05;41.85;;;;;;;18.92;100.00;101299.13;5028489;28;20060;-76
2023/09/05 00:25:01;;;;;;;45.08;42.65;;;;;;;18.63;100.00;101301.91;5026708;28;20057;-76
2023/09/05 00:27:28;;;;;;;41.53;39.42;;;;;;;18.96;100.00;101311.03;5027963;28;20049;-76
2023/09/05 00:29:57;;;;;;;49.05;46.45;;;;;;;18.37;100.00;101310.63;5027771;28;20049;-76
2023/09/05 00:32:24;;;;;;;50.42;46.65;;;;;;;18.89;100.00;101310.41;5028286;28;20049;-76
2023/09/05 00:34:53;;;;;;;54.63;51.83;;;;;;;18.49;100.00;101314.88;5022852;28;20057;-76
2023/09/05 00:37:22;;;;;;;38.83;36.72;;;;;;;19.96;100.00;101310.94;5023967;28;20444;-76
2023/09/05 00:39:56;;;;;;;39.25;37.25;;;;;;;19.19;100.00;101312.72;5027933;28;20045;-76
2023/09/05 00:42:23;;;;;;;45.92;43.53;;;;;;;19.98;100.00;101312.31;5023175;28;20053;-76
2023/09/05 00:44:50;;;;;;;36.78;34.78;;;;;;;19.27;100.00;101308.75;5029100;28;20053;-76
2023/09/05 00:47:17;;;;;;;42.90;40.50;;;;;;;19.23;100.00;101319.22;5027696;28;20431;-76
2023/09/05 00:50:18;;;;;;;41.63;39.28;;;;;;;19.86;100.00;101319.75;5018348;28;20045;-76
2023/09/05 00:52:47;;;;;;;42.25;39.90;;;;;;;18.60;100.00;101325.78;5022828;28;20049;-76
2023/09/05 00:55:16;;;;;;;39.80;37.50;;;;;;;18.60;100.00;101331.97;5021472;28;20050;-76
2023/09/05 00:57:44;;;;;;;36.35;34.20;;;;;;;18.20;100.00;101319.47;5018525;28;20479;-76
2023/09/05 01:00:32;;;;;;;39.80;37.40;;;;;;;18.31;100.00;101323.16;5018859;28;20046;-76
2023/09/05 01:02:59;;;;;;;36.75;34.65;;;;;;;18.26;100.00;101304.25;5029989;28;20077;-76
2023/09/05 01:05:29;;;;;;;38.53;36.15;;;;;;;17.99;100.00;101304.03;5018838;28;20046;-76
2023/09/05 01:08:04;;;;;;;38.47;36.13;;;;;;;18.11;100.00;101314.75;5020653;28;20057;-75
2023/09/05 01:10:46;;;;;;;35.65;33.45;;;;;;;18.06;100.00;101316.28;5018402;28;20136;-76
2023/09/05 01:13:12;;;;;;;34.70;32.50;;;;;;;18.01;100.00;101318.06;5016742;28;20494;-76
2023/09/05 01:15:39;;;;;;;40.35;37.80;;;;;;;17.89;100.00;101314.63;5013040;28;20049;-76
2023/09/05 01:18:07;;;;;;;38.83;36.55;;;;;;;17.89;100.00;101315.41;5013789;28;20057;-76
2023/09/05 01:20:46;;;;;;;32.50;30.60;;;;;;;17.80;100.00;101311.50;5013130;28;20136;-76
2023/09/05 01:23:18;;;;;;;35.72;33.53;;;;;;;17.76;100.00;101307.59;5015642;28;20057;-76
2023/09/05 01:25:48;;;;;;;37.10;34.78;;;;;;;17.78;100.00;101314.41;5025598;28;20053;-76
2023/09/05 01:28:26;;;;;;;36.17;34.17;;;;;;;17.73;100.00;101321.50;5024966;28;20048;-74
2023/09/05 01:30:54;;;;;;;37.60;35.40;;;;;;;17.71;100.00;101332.50;5014100;28;20515;-75
2023/09/05 01:33:21;;;;;;;36.63;34.53;;;;;;;17.81;100.00;101332.72;5024900;28;20439;-74
2023/09/05 01:35:53;;;;;;;40.20;37.80;;;;;;;17.69;100.00;101328.41;5020735;28;20075;-74
2023/09/05 01:38:20;;;;;;;38.10;35.92;;;;;;;17.46;100.00;101334.66;5023872;28;20068;-76
2023/09/05 01:40:48;;;;;;;45.00;42.60;;;;;;;17.55;100.00;101341.28;5013824;28;20158;-76
2023/09/05 01:43:16;;;;;;;36.20;34.20;;;;;;;17.60;100.00;101352.16;5023403;28;20049;-76
2023/09/05 01:45:43;;;;;;;37.78;35.67;;;;;;;17.58;100.00;101355.09;5017860;28;20052;-76
2023/09/05 01:48:09;;;;;;;32.60;30.70;;;;;;;17.55;100.00;101336.75;5019262;28;20045;-76
2023/09/05 01:50:36;;;;;;;37.72;35.40;;;;;;;17.31;100.00;101346.72;5023582;28;20056;-76
2023/09/05 01:53:04;;;;;;;34.58;32.38;;;;;;;17.48;100.00;101341.44;5015524;28;20073;-76
2023/09/05 01:55:31;;;;;;;36.45;34.15;;;;;;;17.31;100.00;101337.84;5013351;28;20059;-75
2023/09/05 01:57:59;;;;;;;39.95;37.55;;;;;;;17.08;100.00;101342.16;5017367;28;20442;-76
2023/09/05 02:00:26;;;;;;;36.28;34.20;;;;;;;17.16;100.00;101341.03;5018726;28;20053;-76
2023/09/05 02:02:53;;;;;;;37.92;35.92;;;;;;;17.08;100.00;101338.69;5019393;28;20054;-75
2023/09/05 02:05:20;;;;;;;39.08;36.85;;;;;;;16.92;100.00;101350.94;5020162;28;20053;-75
2023/09/05 02:07:47;;;;;;;53.10;50.50;;;;;;;17.28;100.00;101349.06;5021443;28;20056;-76
2023/09/05 02:10:14;;;;;;;45.55;42.80;;;;;;;17.39;100.00;101351.72;5023407;28;20069;-76
2023/09/05 02:12:46;;;;;;;43.63;41.42;;;;;;;17.47;100.00;101355.09;5016005;28;20497;-75
2023/09/05 02:15:28;;;;;;;47.43;45.03;;;;;;;17.59;100.00;101367.44;5021124;28;20515;-75
2023/09/05 02:18:06;;;;;;;56.08;53.03;;;;;;;17.31;100.00;101362.03;5025953;28;20046;-75
2023/09/05 02:20:42;;;;;;;35.92;34.00;;;;;;;17.40;100.00;101363.28;5020168;28;20053;-75
2023/09/05 02:23:09;;;;;;;28.63;27.02;;;;;;;17.48;100.00;101368.28;5011037;28;20070;-74
2023/09/05 02:25:36;;;;;;;31.27;29.48;;;;;;;17.54;100.00;101366.53;5023980;28;20412;-75
2023/09/05 02:28:13;;;;;;;31.20;29.30;;;;;;;17.26;100.00;101365.38;5016584;28;20049;-75
2023/09/05 02:30:42;;;;;;;30.65;28.80;;;;;;;17.33;100.00;101371.44;5020402;28;20494;-76
2023/09/05 02:33:10;;;;;;;28.42;26.73;;;;;;;17.39;100.00;101375.88;5019744;28;20075;-76
2023/09/05 02:35:37;;;;;;;29.15;27.45;;;;;;;16.91;100.00;101370.75;5026045;28;20057;-76
2023/09/05 02:38:26;;;;;;;26.77;25.17;;;;;;;16.99;100.00;101374.97;5025782;28;20538;-76
2023/09/05 02:41:01;;;;;;;27.83;26.13;;;;;;;17.08;100.00;101379.75;5025288;28;20076;-76
2023/09/05 02:43:29;;;;;;;27.63;25.83;;;;;;;17.05;100.00;101384.75;5012605;28;20412;-76
2023/09/05 02:45:57;;;;;;;28.92;27.00;;;;;;;17.10;100.00;101374.16;5021521;28;20060;-76
2023/09/05 02:48:24;;;;;;;26.55;24.75;;;;;;;17.18;100.00;101376.47;5019793;28;20052;-76
2023/09/05 02:51:03;;;;;;;28.30;26.50;;;;;;;17.19;100.00;101372.75;5023923;28;20042;-76
2023/09/05 02:53:30;;;;;;;28.02;26.13;;;;;;;16.80;100.00;101363.53;5016355;28;20061;-76
2023/09/05 02:55:57;;;;;;;28.92;26.92;;;;;;;16.64;100.00;101381.03;5030449;28;20096;-75
2023/09/05 02:58:26;;;;;;;26.33;24.52;;;;;;;16.82;100.00;101382.88;5020893;28;20071;-76
2023/09/05 03:01:12;;;;;;;28.00;26.10;;;;;;;16.68;100.00;101383.06;5016042;28;20462;-76
2023/09/05 03:03:39;;;;;;;33.97;31.90;;;;;;;16.77;100.00;101377.41;5019299;28;20073;-76
2023/09/05 03:06:23;;;;;;;40.80;38.20;;;;;;;16.65;100.00;101380.84;5015683;28;20463;-76
2023/09/05 03:08:53;;;;;;;32.60;30.50;;;;;;;16.90;100.00;101383.34;5011855;28;20064;-76
2023/09/05 03:11:20;;;;;;;35.00;32.80;;;;;;;16.87;100.00;101377.63;5018718;28;20057;-76
2023/09/05 03:13:48;;;;;;;32.47;30.55;;;;;;;16.99;100.00;101389.19;5014864;28;20069;-76
2023/09/05 03:16:21;;;;;;;42.33;39.72;;;;;;;16.88;100.00;101388.16;5012404;28;20046;-76
2023/09/05 03:18:48;;;;;;;30.83;28.83;;;;;;;17.02;100.00;101396.78;5018361;28;20101;-76
2023/09/05 03:21:15;;;;;;;26.08;24.38;;;;;;;16.64;100.00;101391.78;5013482;28;20435;-76
2023/09/05 03:23:42;;;;;;;27.67;25.88;;;;;;;16.90;100.00;101396.75;5023711;28;20065;-76
2023/09/05 03:26:09;;;;;;;27.15;25.45;;;;;;;16.83;100.00;101400.63;5010299;28;20045;-76
2023/09/05 03:28:49;;;;;;;27.50;25.50;;;;;;;16.97;100.00;101402.00;5021643;28;20104;-76
2023/09/05 03:31:17;;;;;;;29.48;27.35;;;;;;;16.89;100.00;101403.19;5018231;28;20053;-75
2023/09/05 03:33:45;;;;;;;24.17;22.67;;;;;;;16.84;100.00;101407.59;5027125;28;20042;-75
2023/09/05 03:36:12;;;;;;;31.00;28.58;;;;;;;16.55;100.00;101410.09;5014747;28;20053;-76
2023/09/05 03:38:39;;;;;;;30.25;28.35;;;;;;;16.82;100.00;101404.31;5013818;28;20065;-76
2023/09/05 03:41:21;;;;;;;33.95;31.73;;;;;;;16.77;100.00;101414.94;5012626;28;20077;-76
2023/09/05 03:44:03;;;;;;;31.88;29.88;;;;;;;16.80;100.00;101412.63;5024136;28;20434;-75
2023/09/05 03:46:43;;;;;;;24.13;22.63;;;;;;;16.79;100.00;101421.69;5011598;28;20061;-76
2023/09/05 03:49:12;;;;;;;23.67;22.17;;;;;;;16.76;100.00;101415.97;5023438;28;20057;-76
2023/09/05 03:51:39;;;;;;;27.50;25.90;;;;;;;16.58;100.00;101422.19;5011996;28;20046;-76
2023/09/05 03:54:06;;;;;;;24.63;23.13;;;;;;;16.45;100.00;101418.66;5022888;28;20442;-76
2023/09/05 03:56:33;;;;;;;23.58;22.17;;;;;;;16.60;100.00;101406.69;5022307;28;20072;-75
2023/09/05 03:59:02;;;;;;;24.98;23.48;;;;;;;16.67;100.00;101408.25;5021124;28;20050;-75
2023/09/05 04:01:29;;;;;;;22.13;20.73;;;;;;;16.81;100.00;101411.56;5022159;28;20057;-75
2023/09/05 04:03:56;;;;;;;21.48;20.08;;;;;;;16.93;100.00;101407.03;5016795;28;20399;-76
2023/09/05 04:06:24;;;;;;;22.92;21.42;;;;;;;17.01;100.00;101399.72;5022840;28;20060;-75
2023/09/05 04:08:51;;;;;;;20.88;19.48;;;;;;;17.01;100.00;101408.56;5015433;28;20049;-75
2023/09/05 04:11:18;;;;;;;20.98;19.58;;;;;;;17.01;100.00;101408.56;5026252;28;20100;-75
2023/09/05 04:13:45;;;;;;;20.90;19.50;;;;;;;17.40;100.00;101414.31;5022260;28;20445;-74
2023/09/05 04:16:11;;;;;;;21.13;19.73;;;;;;;17.60;100.00;101411.25;4977048;28;20058;-75
2023/09/05 04:18:38;;;;;;;23.67;22.10;;;;;;;17.91;100.00;101406.53;5005287;28;20069;-75
2023/09/05 04:21:05;;;;;;;21.92;20.42;;;;;;;18.35;100.00;101409.53;5008779;28;20069;-76
2023/09/05 04:23:33;;;;;;;22.02;20.52;;;;;;;19.09;100.00;101398.69;5003531;28;20054;-75
2023/09/05 04:26:02;;;;;;;21.13;19.67;;;;;;;18.72;100.00;101402.66;5004946;28;20049;-75
2023/09/05 04:28:30;;;;;;;21.88;20.48;;;;;;;18.64;100.00;101386.94;5005360;28;20053;-75
2023/09/05 04:31:02;;;;;;;23.05;21.52;;;;;;;19.16;100.00;101393.97;5001811;28;20065;-75
2023/09/05 04:33:31;;;;;;;22.95;21.20;;;;;;;18.98;100.00;101381.59;5007330;28;20046;-75
2023/09/05 04:35:59;;;;;;;22.60;20.90;;;;;;;19.10;100.00;101385.00;5008706;28;20511;-75
2023/09/05 04:38:25;;;;;;;22.08;20.67;;;;;;;18.92;100.00;101386.06;5004806;28;20069;-75
2023/09/05 04:40:54;;;;;;;22.60;21.10;;;;;;;19.15;100.00;101378.88;5004075;28;20192;-76
2023/09/05 04:43:21;;;;;;;22.55;21.05;;;;;;;19.30;100.00;101383.66;5006647;28;20061;-75
2023/09/05 04:45:54;;;;;;;22.35;20.85;;;;;;;19.80;100.00;101382.75;5006025;28;20510;-75
2023/09/05 04:48:20;;;;;;;21.00;19.60;;;;;;;20.12;100.00;101380.13;5002734;28;20125;-75
2023/09/05 04:50:47;;;;;;;22.00;20.60;;;;;;;20.49;100.00;101382.94;5006023;28;20050;-75
2023/09/05 04:53:14;;;;;;;20.83;19.52;;;;;;;20.03;100.00;101387.03;5001980;28;20046;-75
2023/09/05 04:55:43;;;;;;;21.10;19.60;;;;;;;20.65;100.00;101389.31;5009530;28;20104;-74
2023/09/05 04:58:12;;;;;;;20.98;19.38;;;;;;;20.93;100.00;101385.47;5002214;28;20493;-75
2023/09/05 05:00:38;;;;;;;21.40;19.90;;;;;;;20.38;100.00;101389.28;4999255;28;20060;-76
2023/09/05 05:03:05;;;;;;;21.17;19.67;;;;;;;20.44;100.00;101387.47;4998721;28;20511;-76
2023/09/05 05:05:32;;;;;;;20.88;19.48;;;;;;;20.13;100.00;101381.78;5001072;28;20072;-76
2023/09/05 05:07:59;;;;;;;20.17;18.88;;;;;;;21.09;100.00;101391.81;4999439;28;20065;-76
2023/09/05 05:10:26;;;;;;;20.73;19.33;;;;;;;21.09;100.00;101394.53;4996291;28;20072;-76
2023/09/05 05:12:53;;;;;;;19.63;18.23;;;;;;;20.48;100.00;101384.00;4996556;28;20054;-76
2023/09/05 05:15:21;;;;;;;20.00;18.70;;;;;;;22.00;100.00;101373.59;5004019;28;20412;-76
2023/09/05 05:17:48;;;;;;;20.10;18.80;;;;;;;21.51;100.00;101363.97;5003639;28;20436;-76
2023/09/05 05:20:15;;;;;;;20.50;19.15;;;;;;;22.07;100.00;101371.47;5002792;28;20062;-75
2023/09/05 05:22:42;;;;;;;20.52;19.02;;;;;;;22.40;100.00;101381.03;4999467;28;20081;-75
2023/09/05 05:25:09;;;;;;;19.40;18.10;;;;;;;22.81;100.00;101367.50;5001331;28;20057;-75
2023/09/05 05:27:36;;;;;;;19.77;18.48;;;;;;;23.45;100.00;101376.88;5002987;28;20058;-75
2023/09/05 05:30:05;;;;;;;20.05;18.75;;;;;;;23.62;100.00;101366.50;5001450;28;20046;-75
2023/09/05 05:32:33;;;;;;;20.27;18.98;;;;;;;23.04;100.00;101377.00;5001334;28;20053;-75
2023/09/05 05:35:00;;;;;;;20.15;18.75;;;;;;;23.61;100.00;101386.59;5000500;28;20050;-75
2023/09/05 05:37:28;;;;;;;20.90;19.50;;;;;;;23.56;100.00;101367.63;4999672;28;20444;-75
2023/09/05 05:39:55;;;;;;;21.00;19.70;;;;;;;23.10;100.00;101365.06;4995965;28;20426;-75
2023/09/05 05:42:22;;;;;;;22.90;21.40;;;;;;;23.80;100.00;101353.47;5002214;28;20069;-74
2023/09/05 05:44:49;;;;;;;22.80;21.30;;;;;;;22.71;100.00;101353.97;4998293;28;20440;-75
2023/09/05 05:47:16;;;;;;;23.70;22.10;;;;;;;23.00;100.00;101351.53;4998231;28;20054;-76
2023/09/05 05:49:44;;;;;;;21.08;19.77;;;;;;;22.78;100.00;101355.31;5003175;28;20405;-76
2023/09/05 05:52:11;;;;;;;23.58;22.08;;;;;;;23.68;100.00;101356.47;5002775;28;20053;-74
2023/09/05 05:54:38;;;;;;;24.30;22.70;;;;;;;23.84;100.00;101352.59;5001133;28;20081;-76
2023/09/05 05:57:05;;;;;;;23.10;21.60;;;;;;;24.10;100.00;101347.03;5007292;28;20049;-74
2023/09/05 05:59:34;;;;;;;24.30;22.80;;;;;;;24.16;100.00;101351.34;5003240;28;20057;-75
2023/09/05 06:02:01;;;;;;;24.92;23.42;;;;;;;24.02;100.00;101350.34;5001815;28;20054;-76
2023/09/05 06:04:30;;;;;;;26.77;25.17;;;;;;;24.29;100.00;101356.13;5000572;28;20054;-75
2023/09/05 06:06:58;;;;;;;27.75;26.15;;;;;;;23.73;100.00;101365.41;5007583;28;20046;-75
2023/09/05 06:09:25;;;;;;;25.65;24.05;;;;;;;23.84;100.00;101371.59;5007430;28;20061;-76
2023/09/05 06:11:52;;;;;;;26.85;25.15;;;;;;;23.95;100.00;101364.22;5004975;28;20050;-76
2023/09/05 06:14:19;;;;;;;25.80;24.20;;;;;;;23.50;100.00;101357.88;4999785;28;20062;-76
2023/09/05 06:16:46;;;;;;;23.60;22.10;;;;;;;23.71;100.00;101369.50;5009153;28;20438;-76
2023/09/05 06:19:14;;;;;;;21.55;20.25;;;;;;;23.71;100.00;101367.59;5008107;28;20512;-76
2023/09/05 06:21:45;;;;;;;22.10;20.50;;;;;;;23.42;100.00;101377.44;5010433;28;20045;-76
2023/09/05 06:24:14;;;;;;;21.95;20.50;;;;;;;24.18;100.00;101384.44;5005026;28;20104;-76
2023/09/05 06:26:41;;;;;;;23.75;22.15;;;;;;;23.35;100.00;101383.16;5008178;28;20080;-76
2023/09/05 06:29:09;;;;;;;24.20;22.60;;;;;;;24.46;100.00;101399.22;5014715;28;20068;-76
2023/09/05 06:31:35;;;;;;;24.88;23.27;;;;;;;23.42;100.00;101399.94;4992110;28;20109;-76
2023/09/05 06:34:05;;;;;;;24.58;22.98;;;;;;;24.13;100.00;101406.19;5004270;28;20435;-76
2023/09/05 06:36:35;;;;;;;25.23;23.63;;;;;;;23.82;100.00;101400.09;5008677;28;20054;-77
2023/09/05 06:39:04;;;;;;;25.50;23.83;;;;;;;24.26;100.00;101404.72;4997089;28;20137;-77
2023/09/05 06:41:35;;;;;;;27.55;25.85;;;;;;;23.34;100.00;101418.66;4997557;28;20081;-76
2023/09/05 06:44:02;;;;;;;26.90;25.10;;;;;;;24.03;100.00;101423.31;4999804;28;20504;-76
2023/09/05 06:46:29;;;;;;;26.55;24.75;;;;;;;23.64;100.00;101420.47;5013631;28;20049;-76
2023/09/05 06:48:55;;;;;;;25.30;23.60;;;;;;;23.50;100.00;101428.38;4999468;28;20051;-75
2023/09/05 06:51:22;;;;;;;27.05;25.23;;;;;;;23.39;100.00;101433.03;5003216;28;20258;-75
2023/09/05 06:53:49;;;;;;;27.50;25.60;;;;;;;23.58;100.00;101432.44;5002396;28;20115;-75
2023/09/05 06:56:19;;;;;;;25.58;23.73;;;;;;;23.85;100.00;101435.63;5000880;28;20053;-75
2023/09/05 06:58:48;;;;;;;26.35;24.55;;;;;;;24.44;100.00;101437.47;5006340;28;20052;-75
2023/09/05 07:01:15;;;;;;;28.70;26.70;;;;;;;24.20;100.00;101428.38;5000685;28;20523;-75
2023/09/05 07:03:42;;;;;;;27.60;25.80;;;;;;;25.05;100.00;101441.66;5007023;28;20116;-75
2023/09/05 07:06:08;;;;;;;29.65;26.25;;;;;;;25.01;100.00;101446.00;5005395;28;20492;-75
2023/09/05 07:08:35;;;;;;;28.05;26.15;;;;;;;24.14;100.00;101438.44;5001357;28;20049;-76
2023/09/05 07:11:03;;;;;;;27.38;25.48;;;;;;;25.12;100.00;101450.28;4996877;28;20527;-75
2023/09/05 07:13:30;;;;;;;26.10;24.00;;;;;;;25.04;100.00;101442.72;5010878;28;20051;-76
2023/09/05 07:15:58;;;;;;;27.20;25.40;;;;;;;25.35;100.00;101450.63;5006793;28;20072;-75
2023/09/05 07:18:25;;;;;;;26.80;24.90;;;;;;;24.48;100.00;101454.03;4996144;28;20057;-75
2023/09/05 07:20:52;;;;;;;35.92;27.33;;;;;;;25.59;100.00;101446.00;5005985;28;20136;-75
2023/09/05 07:23:19;;;;;;;27.98;26.17;;;;;;;25.72;100.00;101451.84;5003223;28;20054;-75
2023/09/05 07:25:46;;;;;;;25.20;23.70;;;;;;;25.84;100.00;101449.56;5003424;28;20053;-75
2023/09/05 07:28:13;;;;;;;28.02;26.13;;;;;;;26.20;100.00;101449.91;5004062;28;20054;-75
2023/09/05 07:30:40;;;;;;;26.25;24.35;;;;;;;25.56;100.00;101446.56;5008126;28;20430;-75
2023/09/05 07:33:10;;;;;;;28.00;26.20;;;;;;;25.40;100.00;101445.13;4997821;28;20047;-75
2023/09/05 07:35:37;;;;;;;28.40;26.60;;;;;;;25.38;100.00;101450.03;5003185;28;20137;-75
2023/09/05 07:38:04;;;;;;;25.08;23.15;;;;;;;25.47;100.00;101445.59;5003258;28;20490;-75
2023/09/05 07:40:31;;;;;;;22.38;20.77;;;;;;;25.47;100.00;101431.19;5003686;28;20451;-75
2023/09/05 07:43:00;;;;;;;23.52;21.92;;;;;;;25.33;100.00;101431.88;5004647;28;20443;-75
2023/09/05 07:45:27;;;;;;;22.90;21.30;;;;;;;25.49;100.00;101418.94;5005521;28;20054;-75
2023/09/05 07:47:54;;;;;;;22.00;20.45;;;;;;;25.39;100.00;101405.47;5005462;28;20049;-75
2023/09/05 07:50:22;;;;;;;26.52;24.83;;;;;;;25.28;100.00;101406.66;5010944;28;20054;-75
2023/09/05 07:52:49;;;;;;;23.55;21.95;;;;;;;24.88;100.00;101397.78;5003646;28;20046;-76
2023/09/05 07:55:16;;;;;;;24.33;22.63;;;;;;;25.33;100.00;101393.03;5017875;28;20056;-76
2023/09/05 07:57:44;;;;;;;26.00;24.40;;;;;;;25.61;100.00;101385.88;5006940;28;20058;-76
2023/09/05 08:00:15;;;;;;;27.00;25.20;;;;;;;25.55;100.00;101393.28;4999695;28;20104;-76
2023/09/05 08:02:42;;;;;;;27.10;25.50;;;;;;;25.61;100.00;101396.78;5001970;28;20506;-76
2023/09/05 08:05:09;;;;;;;26.73;25.15;;;;;;;25.16;100.00;101400.81;5008443;28;20053;-76
2023/09/05 08:07:38;;;;;;;21.20;19.80;;;;;;;25.34;100.00;101406.31;5006764;28;20478;-76
2023/09/05 08:10:07;;;;;;;23.65;22.05;;;;;;;25.37;100.00;101396.78;5002117;28;20513;-76
2023/09/05 08:12:34;;;;;;;22.60;20.90;;;;;;;24.86;100.00;101408.13;5005772;28;20530;-76
2023/09/05 08:15:00;;;;;;;22.67;20.95;;;;;;;25.54;100.00;101397.13;5002206;28;20050;-76
2023/09/05 08:17:27;;;;;;;21.65;20.15;;;;;;;25.50;100.00;101392.53;5007108;28;20484;-76
2023/09/05 08:19:55;;;;;;;24.25;22.55;;;;;;;25.47;100.00;101391.22;5004436;28;20057;-76
2023/09/05 08:22:21;;;;;;;24.42;22.65;;;;;;;26.07;100.00;101395.38;5001069;28;20420;-76
2023/09/05 08:24:50;;;;;;;21.95;20.35;;;;;;;25.88;100.00;101388.03;5010362;28;20062;-77
2023/09/05 08:27:17;;;;;;;23.05;21.45;;;;;;;26.08;100.00;101395.06;5006294;28;20049;-76
2023/09/05 08:29:44;;;;;;;22.50;21.10;;;;;;;25.94;100.00;101395.00;5007850;28;20051;-76
2023/09/05 08:32:11;;;;;;;25.10;23.50;;;;;;;25.66;100.00;101387.72;5007710;28;20049;-77
2023/09/05 08:34:40;;;;;;;24.13;22.63;;;;;;;25.45;100.00;101390.72;5005209;28;20048;-76
2023/09/05 08:37:07;;;;;;;22.98;21.48;;;;;;;25.48;100.00;101389.31;5005445;28;20050;-76
2023/09/05 08:39:34;;;;;;;21.70;20.20;;;;;;;25.50;100.00;101384.38;5004369;28;20053;-74
2023/09/05 08:42:06;;;;;;;21.58;20.08;;;;;;;25.47;100.00;101384.97;5007831;28;20042;-75
2023/09/05 08:44:35;;;;;;;21.90;20.30;;;;;;;25.24;100.00;101370.28;5007854;28;20056;-75
2023/09/05 08:47:02;;;;;;;21.50;20.00;;;;;;;25.87;100.00;101378.25;5008558;28;20041;-76
2023/09/05 08:49:29;;;;;;;22.10;20.40;;;;;;;25.88;100.00;101368.16;5008307;28;20050;-77
2023/09/05 08:52:02;;;;;;;23.00;21.30;;;;;;;25.50;100.00;101378.94;5008349;28;20042;-76
2023/09/05 08:54:30;;;;;;;22.95;21.25;;;;;;;25.56;100.00;101365.00;5004669;28;20045;-76
2023/09/05 08:56:59;;;;;;;39.63;22.88;;;;;;;25.68;100.00;101374.66;5006725;28;20053;-76
2023/09/05 08:59:27;;;;;;;24.85;23.20;;;;;;;25.73;100.00;101377.31;5004852;28;20047;-76
2023/09/05 09:01:54;;;;;;;24.70;23.08;;;;;;;25.66;100.00;101383.13;4998395;28;20057;-75
2023/09/05 09:04:21;;;;;;;24.38;22.77;;;;;;;25.42;100.00;101380.41;5000656;28;20072;-75
2023/09/05 09:06:55;;;;;;;21.60;20.10;;;;;;;25.80;100.00;101396.78;5009006;28;20064;-75
2023/09/05 09:09:40;;;;;;;24.45;22.85;;;;;;;25.73;100.00;101396.34;5005083;28;20052;-75
2023/09/05 09:12:08;;;;;;;20.85;19.48;;;;;;;25.53;100.00;101394.69;5000513;28;20502;-76
2023/09/05 09:14:37;;;;;;;21.40;19.90;;;;;;;25.89;100.00;101397.78;5003370;28;20042;-75
2023/09/05 09:17:06;;;;;;;21.13;19.67;;;;;;;25.79;100.00;101389.75;5005589;28;20107;-76
2023/09/05 09:19:34;;;;;;;20.98;19.48;;;;;;;25.83;100.00;101377.19;5005104;28;20550;-77
2023/09/05 09:22:05;;;;;;;24.60;23.00;;;;;;;25.75;100.00;101384.09;5004475;28;20053;-75
2023/09/05 09:24:34;;;;;;;22.67;21.07;;;;;;;25.97;100.00;101383.53;5002763;28;20074;-76
2023/09/05 09:27:02;;;;;;;23.45;21.58;;;;;;;25.90;100.00;101394.00;5007989;28;20093;-76
2023/09/05 09:29:30;;;;;;;23.10;21.20;;;;;;;26.00;100.00;101388.41;5002841;28;20055;-75
2023/09/05 09:32:03;;;;;;;22.67;21.08;;;;;;;26.09;100.00;101396.72;5002933;28;20384;-77
2023/09/05 09:34:30;;;;;;;22.83;21.13;;;;;;;26.19;100.00;101387.59;4998923;28;20571;-76
2023/09/05 09:36:58;;;;;;;22.48;20.88;;;;;;;25.86;100.00;101387.50;5003754;28;20049;-76
2023/09/05 09:39:25;;;;;;;22.02;20.42;;;;;;;25.99;100.00;101392.22;5006220;28;20077;-76
2023/09/05 09:41:52;;;;;;;22.80;21.20;;;;;;;26.03;100.00;101395.97;5011850;28;20053;-75
2023/09/05 09:44:26;;;;;;;23.92;22.25;;;;;;;26.02;100.00;101396.25;5004336;28;20058;-76
2023/09/05 09:46:54;;;;;;;21.05;19.45;;;;;;;26.16;100.00;101396.34;5007786;28;20057;-76
2023/09/05 09:49:24;;;;;;;20.75;19.25;;;;;;;26.03;100.00;101384.28;5014362;28;20049;-76
2023/09/05 09:51:55;;;;;;;23.63;21.92;;;;;;;26.16;100.00;101386.25;5004882;28;20096;-76
2023/09/05 09:54:31;;;;;;;22.23;20.63;;;;;;;26.34;100.00;101381.09;5006169;28;20127;-76
2023/09/05 09:57:01;;;;;;;21.88;20.27;;;;;;;26.43;100.00;101382.03;4996155;28;20046;-77
2023/09/05 09:59:35;;;;;;;22.20;20.60;;;;;;;26.59;100.00;101385.34;5009040;28;20085;-76
2023/09/05 10:02:04;;;;;;;23.67;21.98;;;;;;;26.26;100.00;101398.91;5005707;28;20038;-77
2023/09/05 10:04:34;;;;;;;23.60;21.90;;;;;;;26.23;100.00;101389.44;5004143;28;20053;-77
2023/09/05 10:07:02;;;;;;;23.30;21.60;;;;;;;26.40;100.00;101383.44;5007394;28;20038;-76
2023/09/05 10:09:30;;;;;;;23.33;21.63;;;;;;;26.46;100.00;101376.00;5012890;28;20046;-77
2023/09/05 10:12:05;;;;;;;26.75;24.95;;;;;;;26.62;100.00;101382.03;5000177;28;20474;-76
2023/09/05 10:14:35;;;;;;;24.45;22.75;;;;;;;26.58;100.00;101392.72;4999321;28;20134;-76
2023/09/05 10:17:06;;;;;;;23.95;22.35;;;;;;;26.81;100.00;101380.09;5005323;28;20050;-76
2023/09/05 10:19:35;;;;;;;23.50;21.90;;;;;;;26.71;100.00;101404.78;5002692;28;20072;-77
2023/09/05 10:22:03;;;;;;;22.52;20.83;;;;;;;26.54;100.00;101396.31;5005841;28;20419;-77
2023/09/05 10:24:32;;;;;;;23.60;21.90;;;;;;;26.87;100.00;101402.59;5003651;28;20121;-77
2023/09/05 10:26:59;;;;;;;25.35;23.33;;;;;;;26.55;100.00;101398.78;4998731;28;20054;-77
2023/09/05 10:29:34;;;;;;;23.70;22.00;;;;;;;26.69;100.00;101409.72;5013273;28;20051;-77
2023/09/05 10:32:02;;;;;;;24.45;22.17;;;;;;;26.60;100.00;101414.22;5004363;28;20115;-77
2023/09/05 10:34:58;;;;;;;22.70;21.00;;;;;;;26.50;100.00;101423.34;5008256;28;21297;-77
2023/09/05 10:37:28;;;;;;;23.70;21.90;;;;;;;26.60;100.00;101417.75;5001006;28;20436;-76
2023/09/05 10:39:57;;;;;;;23.67;22.08;;;;;;;26.58;100.00;101419.97;5004729;28;20061;-76
2023/09/05 10:42:30;;;;;;;22.63;21.02;;;;;;;26.64;100.00;101415.25;5000359;28;20081;-76
2023/09/05 10:44:58;;;;;;;22.80;21.30;;;;;;;26.87;100.00;101421.66;4999367;28;20058;-77
2023/09/05 10:47:26;;;;;;;24.77;23.17;;;;;;;26.90;100.00;101423.78;4997858;28;20069;-77
2023/09/05 10:50:00;;;;;;;24.17;22.63;;;;;;;26.82;100.00;101408.94;4995329;28;20046;-77
2023/09/05 10:52:29;;;;;;;25.20;23.40;;;;;;;26.91;100.00;101425.44;5009982;28;20522;-78
2023/09/05 10:54:58;;;;;;;22.67;21.08;;;;;;;26.62;100.00;101412.00;5007753;28;20137;-77
2023/09/05 10:57:36;;;;;;;22.20;20.60;;;;;;;26.55;100.00;101409.66;5010282;28;20133;-76
2023/09/05 11:00:29;;;;;;;22.02;20.42;;;;;;;26.59;100.00;101405.22;5000329;28;20054;-76
2023/09/05 11:02:57;;;;;;;21.92;20.30;;;;;;;26.42;100.00;101419.38;4999942;28;20124;-77
2023/09/05 11:05:27;;;;;;;22.30;20.70;;;;;;;26.34;100.00;101405.63;4999969;28;20050;-77
2023/09/05 11:07:55;;;;;;;23.13;21.52;;;;;;;26.50;100.00;101405.09;5000178;28;20061;-76
2023/09/05 11:10:26;;;;;;;22.50;20.90;;;;;;;26.46;100.00;101392.34;4996698;28;20050;-77